sensor_id;sensor_type;location;lat;lon;timestamp;pressure;altitude;pressure_sealevel;temperature;humidity
62708;BME280;48769;51.624;5.886;2023-04-26T00:02:22;101756.25;;;3.88;100.00
62708;BME280;48769;51.624;5.886;2023-04-26T00:04:51;101760.63;;;3.86;100.00
62708;BME280;48769;51.624;5.886;2023-04-26T00:07:23;101753.72;;;3.79;100.00
62708;BME280;48769;51.624;5.886;2023-04-26T00:09:52;101746.81;;;3.72;100.00
62708;BME280;48769;51.624;5.886;2023-04-26T00:12:18;101750.34;;;3.71;100.00
62708;BME280;48769;51.624;5.886;2023-04-26T00:14:43;101746.78;;;3.73;100.00
62708;BME280;48769;51.624;5.886;2023-04-26T00:17:09;101750.28;;;3.77;100.00
62708;BME280;48769;51.624;5.886;2023-04-26T00:19:34;101751.16;;;3.74;100.00
62708;BME280;48769;51.624;5.886;2023-04-26T00:21:59;101749.41;;;3.73;100.00
62708;BME280;48769;51.624;5.886;2023-04-26T00:24:25;101748.47;;;3.82;100.00
62708;BME280;48769;51.624;5.886;2023-04-26T00:26:53;101744.91;;;3.89;100.00
62708;BME280;48769;51.624;5.886;2023-04-26T00:29:19;101744.00;;;3.96;100.00
62708;BME280;48769;51.624;5.886;2023-04-26T00:31:44;101742.22;;;4.00;100.00
62708;BME280;48769;51.624;5.886;2023-04-26T00:34:09;101744.84;;;3.98;100.00
62708;BME280;48769;51.624;5.886;2023-04-26T00:36:35;101750.06;;;3.98;100.00
62708;BME280;48769;51.624;5.886;2023-04-26T00:39:00;101748.38;;;3.91;100.00
62708;BME280;48769;51.624;5.886;2023-04-26T00:41:25;101748.38;;;3.91;100.00
62708;BME280;48769;51.624;5.886;2023-04-26T00:43:51;101750.97;;;3.94;100.00
62708;BME280;48769;51.624;5.886;2023-04-26T00:46:16;101750.97;;;3.94;100.00
62708;BME280;48769;51.624;5.886;2023-04-26T00:48:41;101743.16;;;3.91;100.00
62708;BME280;48769;51.624;5.886;2023-04-26T00:51:07;101739.69;;;3.91;100.00
62708;BME280;48769;51.624;5.886;2023-04-26T00:53:33;101744.06;;;3.90;100.00
62708;BME280;48769;51.624;5.886;2023-04-26T00:55:59;101743.16;;;3.91;100.00
62708;BME280;48769;51.624;5.886;2023-04-26T00:58:25;101740.56;;;3.91;100.00
62708;BME280;48769;51.624;5.886;2023-04-26T01:00:50;101744.06;;;3.90;100.00
62708;BME280;48769;51.624;5.886;2023-04-26T01:03:16;101745.81;;;3.88;100.00
62708;BME280;48769;51.624;5.886;2023-04-26T01:05:42;101744.91;;;3.89;100.00
62708;BME280;48769;51.624;5.886;2023-04-26T01:08:07;101739.72;;;3.86;100.00
62708;BME280;48769;51.624;5.886;2023-04-26T01:10:33;101745.06;;;3.74;100.00
62708;BME280;48769;51.624;5.886;2023-04-26T01:13:00;101741.72;;;3.58;100.00
62708;BME280;48769;51.624;5.886;2023-04-26T01:15:26;101735.78;;;3.39;100.00
62708;BME280;48769;51.624;5.886;2023-04-26T01:17:58;101744.66;;;3.15;100.00
62708;BME280;48769;51.624;5.886;2023-04-26T01:20:23;101749.00;;;3.09;100.00
62708;BME280;48769;51.624;5.886;2023-04-26T01:22:53;101745.56;;;3.10;100.00
62708;BME280;48769;51.624;5.886;2023-04-26T01:25:18;101741.22;;;3.07;100.00
62708;BME280;48769;51.624;5.886;2023-04-26T01:27:45;101750.78;;;3.07;100.00
62708;BME280;48769;51.624;5.886;2023-04-26T01:30:11;101748.19;;;3.02;100.00
62708;BME280;48769;51.624;5.886;2023-04-26T01:32:36;101753.41;;;3.02;100.00
62708;BME280;48769;51.624;5.886;2023-04-26T01:35:02;101750.00;;;2.94;100.00
62708;BME280;48769;51.624;5.886;2023-04-26T01:37:27;101747.38;;;2.89;100.00
62708;BME280;48769;51.624;5.886;2023-04-26T01:39:53;101743.94;;;2.90;100.00
62708;BME280;48769;51.624;5.886;2023-04-26T01:42:18;101756.09;;;2.91;100.00
62708;BME280;48769;51.624;5.886;2023-04-26T01:44:43;101749.09;;;2.99;100.00
62708;BME280;48769;51.624;5.886;2023-04-26T01:47:08;101751.72;;;2.95;100.00
62708;BME280;48769;51.624;5.886;2023-04-26T01:49:34;101752.66;;;2.83;100.00
62708;BME280;48769;51.624;5.886;2023-04-26T01:52:00;101754.50;;;2.60;100.00
62708;BME280;48769;51.624;5.886;2023-04-26T01:54:25;101759.75;;;2.50;100.00
62708;BME280;48769;51.624;5.886;2023-04-26T01:56:50;101749.28;;;2.53;100.00
62708;BME280;48769;51.624;5.886;2023-04-26T01:59:16;101746.69;;;2.58;100.00
62708;BME280;48769;51.624;5.886;2023-04-26T02:01:41;101749.28;;;2.53;100.00
62708;BME280;48769;51.624;5.886;2023-04-26T02:04:10;101745.84;;;2.51;100.00
62708;BME280;48769;51.624;5.886;2023-04-26T02:06:35;101744.97;;;2.49;100.00
62708;BME280;48769;51.624;5.886;2023-04-26T02:09:02;101746.69;;;2.53;100.00
62708;BME280;48769;51.624;5.886;2023-04-26T02:11:28;101744.94;;;2.62;100.00
62708;BME280;48769;51.624;5.886;2023-04-26T02:13:53;101744.03;;;2.67;100.00
62708;BME280;48769;51.624;5.886;2023-04-26T02:16:19;101743.13;;;2.73;100.00
62708;BME280;48769;51.624;5.886;2023-04-26T02:18:45;101744.88;;;2.66;100.00
62708;BME280;48769;51.624;5.886;2023-04-26T02:21:11;101745.81;;;2.59;100.00
62708;BME280;48769;51.624;5.886;2023-04-26T02:23:36;101750.22;;;2.48;100.00
62708;BME280;48769;51.624;5.886;2023-04-26T02:26:02;101756.28;;;2.45;100.00
62708;BME280;48769;51.624;5.886;2023-04-26T02:28:28;101745.88;;;2.42;100.00
62708;BME280;48769;51.624;5.886;2023-04-26T02:30:53;101751.09;;;2.39;100.00
62708;BME280;48769;51.624;5.886;2023-04-26T02:33:21;101748.47;;;2.39;100.00
62708;BME280;48769;51.624;5.886;2023-04-26T02:35:46;101748.50;;;2.38;100.00
62708;BME280;48769;51.624;5.886;2023-04-26T02:38:12;101754.59;;;2.32;100.00
62708;BME280;48769;51.624;5.886;2023-04-26T02:40:37;101754.59;;;2.32;100.00
62708;BME280;48769;51.624;5.886;2023-04-26T02:43:02;101747.59;;;2.37;100.00
62708;BME280;48769;51.624;5.886;2023-04-26T02:45:27;101744.13;;;2.47;100.00
62708;BME280;48769;51.624;5.886;2023-04-26T02:47:53;101744.06;;;2.56;100.00
62708;BME280;48769;51.624;5.886;2023-04-26T02:50:18;101741.47;;;2.55;100.00
62708;BME280;48769;51.624;5.886;2023-04-26T02:52:44;101744.06;;;2.53;100.00
62708;BME280;48769;51.624;5.886;2023-04-26T02:55:09;101743.22;;;2.53;100.00
62708;BME280;48769;51.624;5.886;2023-04-26T02:57:34;101738.00;;;2.51;100.00
62708;BME280;48769;51.624;5.886;2023-04-26T03:00:00;101740.66;;;2.45;100.00
62708;BME280;48769;51.624;5.886;2023-04-26T03:02:25;101740.66;;;2.42;100.00
62708;BME280;48769;51.624;5.886;2023-04-26T03:04:50;101735.44;;;2.42;100.00
62708;BME280;48769;51.624;5.886;2023-04-26T03:07:19;101744.13;;;2.41;100.00
62708;BME280;48769;51.624;5.886;2023-04-26T03:09:44;101738.09;;;2.28;100.00
62708;BME280;48769;51.624;5.886;2023-04-26T03:12:10;101749.38;;;2.27;100.00
62708;BME280;48769;51.624;5.886;2023-04-26T03:14:36;101732.88;;;2.34;100.00
62708;BME280;48769;51.624;5.886;2023-04-26T03:17:01;101730.22;;;2.42;100.00
62708;BME280;48769;51.624;5.886;2023-04-26T03:19:27;101737.19;;;2.37;100.00
62708;BME280;48769;51.624;5.886;2023-04-26T03:21:53;101734.63;;;2.31;100.00
62708;BME280;48769;51.624;5.886;2023-04-26T03:24:18;101730.25;;;2.30;100.00
62708;BME280;48769;51.624;5.886;2023-04-26T03:26:44;101722.47;;;2.21;100.00
62708;BME280;48769;51.624;5.886;2023-04-26T03:29:09;101738.13;;;2.16;100.00
62708;BME280;48769;51.624;5.886;2023-04-26T03:31:36;101741.63;;;2.12;100.00
62708;BME280;48769;51.624;5.886;2023-04-26T03:34:02;101731.16;;;2.14;100.00
62708;BME280;48769;51.624;5.886;2023-04-26T03:36:27;101721.59;;;2.23;100.00
62708;BME280;48769;51.624;5.886;2023-04-26T03:38:53;101722.44;;;2.33;100.00
62708;BME280;48769;51.624;5.886;2023-04-26T03:41:18;101716.31;;;2.37;100.00
62708;BME280;48769;51.624;5.886;2023-04-26T03:43:43;101717.22;;;2.38;100.00
62708;BME280;48769;51.624;5.886;2023-04-26T03:46:09;101721.53;;;2.37;100.00
62708;BME280;48769;51.624;5.886;2023-04-26T03:48:34;101726.78;;;2.31;100.00
62708;BME280;48769;51.624;5.886;2023-04-26T03:51:00;101722.47;;;2.21;100.00
62708;BME280;48769;51.624;5.886;2023-04-26T03:53:26;101729.41;;;2.17;100.00
62708;BME280;48769;51.624;5.886;2023-04-26T03:55:51;101721.63;;;2.13;100.00
62708;BME280;48769;51.624;5.886;2023-04-26T03:58:16;101720.75;;;2.12;100.00
62708;BME280;48769;51.624;5.886;2023-04-26T04:00:42;101712.91;;;2.17;100.00
62708;BME280;48769;51.624;5.886;2023-04-26T04:03:07;101721.63;;;2.16;100.00
62708;BME280;48769;51.624;5.886;2023-04-26T04:05:35;101725.09;;;2.07;100.00
62708;BME280;48769;51.624;5.886;2023-04-26T04:08:01;101725.13;;;1.96;100.00
62708;BME280;48769;51.624;5.886;2023-04-26T04:10:28;101724.28;;;1.90;100.00
62708;BME280;48769;51.624;5.886;2023-04-26T04:12:53;101727.78;;;1.85;100.00
62708;BME280;48769;51.624;5.886;2023-04-26T04:15:19;101726.03;;;1.75;100.00
62708;BME280;48769;51.624;5.886;2023-04-26T04:17:45;101726.03;;;1.80;100.00
62708;BME280;48769;51.624;5.886;2023-04-26T04:20:11;101721.69;;;1.93;100.00
62708;BME280;48769;51.624;5.886;2023-04-26T04:22:37;101719.06;;;1.99;100.00
62708;BME280;48769;51.624;5.886;2023-04-26T04:25:06;101725.97;;;2.01;100.00
62708;BME280;48769;51.624;5.886;2023-04-26T04:27:32;101728.59;;;2.04;100.00
62708;BME280;48769;51.624;5.886;2023-04-26T04:29:57;101723.38;;;2.01;100.00
62708;BME280;48769;51.624;5.886;2023-04-26T04:32:22;101732.94;;;2.01;100.00
62708;BME280;48769;51.624;5.886;2023-04-26T04:34:49;101725.16;;;1.93;100.00
62708;BME280;48769;51.624;5.886;2023-04-26T04:37:16;101738.16;;;2.01;100.00
62708;BME280;48769;51.624;5.886;2023-04-26T04:39:42;101733.78;;;2.07;100.00
62708;BME280;48769;51.624;5.886;2023-04-26T04:42:08;101732.06;;;2.13;100.00
62708;BME280;48769;51.624;5.886;2023-04-26T04:44:34;101733.78;;;2.18;100.00
62708;BME280;48769;51.624;5.886;2023-04-26T04:47:01;101742.47;;;2.13;100.00
62708;BME280;48769;51.624;5.886;2023-04-26T04:49:26;101732.06;;;2.06;100.00
62708;BME280;48769;51.624;5.886;2023-04-26T04:51:51;101739.91;;;2.02;100.00
62708;BME280;48769;51.624;5.886;2023-04-26T04:54:17;101737.28;;;1.88;100.00
62708;BME280;48769;51.624;5.886;2023-04-26T04:56:43;101746.00;;;1.72;100.00
62708;BME280;48769;51.624;5.886;2023-04-26T04:59:10;101761.66;;;1.59;100.00
62708;BME280;48769;51.624;5.886;2023-04-26T05:01:35;101752.97;;;1.67;100.00
62708;BME280;48769;51.624;5.886;2023-04-26T05:04:02;101747.72;;;1.82;100.00
62708;BME280;48769;51.624;5.886;2023-04-26T05:06:28;101755.56;;;1.90;100.00
62708;BME280;48769;51.624;5.886;2023-04-26T05:08:55;101751.19;;;1.90;100.00
62708;BME280;48769;51.624;5.886;2023-04-26T05:11:20;101758.16;;;1.90;100.00
62708;BME280;48769;51.624;5.886;2023-04-26T05:13:47;101754.69;;;1.89;100.00
62708;BME280;48769;51.624;5.886;2023-04-26T05:16:12;101754.69;;;1.92;100.00
62708;BME280;48769;51.624;5.886;2023-04-26T05:18:38;101759.91;;;1.98;100.00
62708;BME280;48769;51.624;5.886;2023-04-26T05:21:03;101760.72;;;2.11;100.00
62708;BME280;48769;51.624;5.886;2023-04-26T05:23:29;101773.75;;;2.19;100.00
62708;BME280;48769;51.624;5.886;2023-04-26T05:25:55;101764.13;;;2.33;100.00
62708;BME280;48769;51.624;5.886;2023-04-26T05:28:20;101771.03;;;2.57;100.00
62708;BME280;48769;51.624;5.886;2023-04-26T05:30:45;101769.13;;;2.91;100.00
62708;BME280;48769;51.624;5.886;2023-04-26T05:33:11;101770.78;;;3.09;100.00
62708;BME280;48769;51.624;5.886;2023-04-26T05:35:36;101771.50;;;3.31;100.00
62708;BME280;48769;51.624;5.886;2023-04-26T05:38:02;101770.16;;;3.92;100.00
62708;BME280;48769;51.624;5.886;2023-04-26T05:40:28;101775.56;;;4.60;100.00
62708;BME280;48769;51.624;5.886;2023-04-26T05:42:53;101783.13;;;5.45;100.00
62708;BME280;48769;51.624;5.886;2023-04-26T05:45:18;101783.56;;;6.24;100.00
62708;BME280;48769;51.624;5.886;2023-04-26T05:47:44;101781.25;;;6.55;100.00
62708;BME280;48769;51.624;5.886;2023-04-26T05:50:11;101776.44;;;6.75;100.00
62708;BME280;48769;51.624;5.886;2023-04-26T05:52:36;101773.47;;;6.50;100.00
62708;BME280;48769;51.624;5.886;2023-04-26T05:55:02;101773.00;;;6.28;100.00
62708;BME280;48769;51.624;5.886;2023-04-26T05:57:28;101780.34;;;6.09;100.00
62708;BME280;48769;51.624;5.886;2023-04-26T05:59:54;101779.50;;;6.09;100.00
62708;BME280;48769;51.624;5.886;2023-04-26T06:02:19;101777.88;;;6.02;100.00
62708;BME280;48769;51.624;5.886;2023-04-26T06:04:45;101773.81;;;5.82;100.00
62708;BME280;48769;51.624;5.886;2023-04-26T06:07:10;101783.88;;;5.54;100.00
62708;BME280;48769;51.624;5.886;2023-04-26T06:09:35;101783.44;;;5.25;100.00
62708;BME280;48769;51.624;5.886;2023-04-26T06:12:01;101787.91;;;5.18;100.00
62708;BME280;48769;51.624;5.886;2023-04-26T06:14:28;101792.31;;;5.13;100.00
62708;BME280;48769;51.624;5.886;2023-04-26T06:16:53;101787.91;;;5.18;100.00
62708;BME280;48769;51.624;5.886;2023-04-26T06:19:19;101790.41;;;5.27;100.00
62708;BME280;48769;51.624;5.886;2023-04-26T06:21:44;101790.09;;;5.46;100.00
62708;BME280;48769;51.624;5.886;2023-04-26T06:24:10;101791.41;;;5.74;100.00
62708;BME280;48769;51.624;5.886;2023-04-26T06:26:35;101795.44;;;5.97;100.00
62708;BME280;48769;51.624;5.886;2023-04-26T06:29:01;101786.50;;;6.08;100.00
62708;BME280;48769;51.624;5.886;2023-04-26T06:31:26;101785.59;;;6.11;100.00
62708;BME280;48769;51.624;5.886;2023-04-26T06:33:52;101783.53;;;6.27;100.00
62708;BME280;48769;51.624;5.886;2023-04-26T06:36:17;101778.16;;;6.35;100.00
62708;BME280;48769;51.624;5.886;2023-04-26T06:38:42;101788.09;;;6.62;100.00
62708;BME280;48769;51.624;5.886;2023-04-26T06:41:08;101779.75;;;7.25;100.00
62708;BME280;48769;51.624;5.886;2023-04-26T06:43:33;101778.88;;;7.64;100.00
62708;BME280;48769;51.624;5.886;2023-04-26T06:45:58;101786.91;;;7.92;100.00
62708;BME280;48769;51.624;5.886;2023-04-26T06:48:24;101788.06;;;7.82;100.00
62708;BME280;48769;51.624;5.886;2023-04-26T06:50:49;101785.72;;;7.69;100.00
62708;BME280;48769;51.624;5.886;2023-04-26T06:53:14;101788.09;;;7.80;100.00
62708;BME280;48769;51.624;5.886;2023-04-26T06:55:40;101793.38;;;7.80;100.00
62708;BME280;48769;51.624;5.886;2023-04-26T06:58:05;101792.25;;;7.89;100.00
62708;BME280;48769;51.624;5.886;2023-04-26T07:00:30;101795.56;;;7.97;100.00
62708;BME280;48769;51.624;5.886;2023-04-26T07:02:56;101809.53;;;7.99;100.00
62708;BME280;48769;51.624;5.886;2023-04-26T07:05:21;101805.19;;;7.98;99.68
62708;BME280;48769;51.624;5.886;2023-04-26T07:07:47;101807.44;;;8.13;98.18
62708;BME280;48769;51.624;5.886;2023-04-26T07:10:13;101803.56;;;8.27;98.36
62708;BME280;48769;51.624;5.886;2023-04-26T07:12:39;101811.56;;;8.56;97.34
62708;BME280;48769;51.624;5.886;2023-04-26T07:15:04;101799.00;;;8.66;95.31
62708;BME280;48769;51.624;5.886;2023-04-26T07:17:31;101804.72;;;8.80;95.77
62708;BME280;48769;51.624;5.886;2023-04-26T07:19:56;101799.03;;;8.96;94.83
62708;BME280;48769;51.624;5.886;2023-04-26T07:22:22;101796.47;;;8.93;93.87
62708;BME280;48769;51.624;5.886;2023-04-26T07:24:47;101793.91;;;8.91;92.76
62708;BME280;48769;51.624;5.886;2023-04-26T07:27:12;101799.63;;;9.05;90.97
62708;BME280;48769;51.624;5.886;2023-04-26T07:29:38;101794.16;;;9.11;88.10
62708;BME280;48769;51.624;5.886;2023-04-26T07:32:04;101783.47;;;8.86;85.98
62708;BME280;48769;51.624;5.886;2023-04-26T07:34:29;101780.66;;;8.93;85.86
62708;BME280;48769;51.624;5.886;2023-04-26T07:36:54;101779.41;;;9.34;85.25
62708;BME280;48769;51.624;5.886;2023-04-26T07:39:22;101780.03;;;9.42;82.88
62708;BME280;48769;51.624;5.886;2023-04-26T07:41:48;101778.34;;;9.11;81.63
62708;BME280;48769;51.624;5.886;2023-04-26T07:44:13;101776.69;;;9.37;82.52
62708;BME280;48769;51.624;5.886;2023-04-26T07:46:39;101775.28;;;9.53;79.47
62708;BME280;48769;51.624;5.886;2023-04-26T07:49:04;101769.50;;;9.69;78.57
62708;BME280;48769;51.624;5.886;2023-04-26T07:51:30;101770.94;;;10.04;79.48
62708;BME280;48769;51.624;5.886;2023-04-26T07:53:56;101761.16;;;10.58;77.01
62708;BME280;48769;51.624;5.886;2023-04-26T07:56:21;101765.66;;;10.31;73.54
62708;BME280;48769;51.624;5.886;2023-04-26T07:58:48;101760.59;;;10.23;74.63
62708;BME280;48769;51.624;5.886;2023-04-26T08:01:13;101752.19;;;9.87;71.84
62708;BME280;48769;51.624;5.886;2023-04-26T08:03:38;101754.25;;;9.78;73.14
62708;BME280;48769;51.624;5.886;2023-04-26T08:06:04;101767.75;;;9.94;75.18
62708;BME280;48769;51.624;5.886;2023-04-26T08:08:29;101768.56;;;9.96;75.26
62708;BME280;48769;51.624;5.886;2023-04-26T08:10:57;101771.13;;;9.73;73.29
62708;BME280;48769;51.624;5.886;2023-04-26T08:13:22;101776.22;;;9.79;75.12
62708;BME280;48769;51.624;5.886;2023-04-26T08:15:48;101775.81;;;9.91;74.70
62708;BME280;48769;51.624;5.886;2023-04-26T08:18:13;101771.22;;;9.70;74.09
62708;BME280;48769;51.624;5.886;2023-04-26T08:20:39;101784.97;;;9.25;75.33
62708;BME280;48769;51.624;5.886;2023-04-26T08:23:05;101779.66;;;9.26;75.85
62708;BME280;48769;51.624;5.886;2023-04-26T08:25:31;101786.53;;;9.02;75.71
62708;BME280;48769;51.624;5.886;2023-04-26T08:27:58;101794.63;;;8.96;76.04
62708;BME280;48769;51.624;5.886;2023-04-26T08:30:24;101793.41;;;9.08;75.30
62708;BME280;48769;51.624;5.886;2023-04-26T08:32:49;101787.00;;;9.17;72.31
62708;BME280;48769;51.624;5.886;2023-04-26T08:35:15;101784.69;;;9.34;72.42
62708;BME280;48769;51.624;5.886;2023-04-26T08:37:40;101794.38;;;9.33;72.12
62708;BME280;48769;51.624;5.886;2023-04-26T08:40:07;101793.00;;;9.48;72.50
62708;BME280;48769;51.624;5.886;2023-04-26T08:42:42;101789.09;;;10.40;71.13
62708;BME280;48769;51.624;5.886;2023-04-26T08:45:10;101776.53;;;11.17;69.02
62708;BME280;48769;51.624;5.886;2023-04-26T08:47:43;101764.81;;;11.88;65.68
62708;BME280;48769;51.624;5.886;2023-04-26T08:50:10;101760.84;;;11.99;61.89
62708;BME280;48769;51.624;5.886;2023-04-26T08:52:37;101767.84;;;12.61;63.22
62708;BME280;48769;51.624;5.886;2023-04-26T08:55:06;101755.97;;;13.07;59.58
62708;BME280;48769;51.624;5.886;2023-04-26T08:57:34;101757.25;;;12.61;58.32
62708;BME280;48769;51.624;5.886;2023-04-26T09:00:01;101757.06;;;12.25;59.42
62708;BME280;48769;51.624;5.886;2023-04-26T09:02:26;101758.34;;;11.96;59.81
62708;BME280;48769;51.624;5.886;2023-04-26T09:04:51;101755.38;;;11.61;59.73
62708;BME280;48769;51.624;5.886;2023-04-26T09:07:30;101753.53;;;11.19;60.58
62708;BME280;48769;51.624;5.886;2023-04-26T09:09:57;101745.63;;;10.72;59.62
62708;BME280;48769;51.624;5.886;2023-04-26T09:12:22;101747.34;;;10.49;59.67
62708;BME280;48769;51.624;5.886;2023-04-26T09:14:48;101752.53;;;10.52;59.67
62708;BME280;48769;51.624;5.886;2023-04-26T09:17:27;101746.00;;;10.63;59.11
62708;BME280;48769;51.624;5.886;2023-04-26T09:19:52;101736.69;;;10.98;57.55
62708;BME280;48769;51.624;5.886;2023-04-26T09:22:30;101735.44;;;11.30;55.93
62708;BME280;48769;51.624;5.886;2023-04-26T09:24:57;101733.09;;;11.22;56.89
62708;BME280;48769;51.624;5.886;2023-04-26T09:27:37;101736.19;;;11.12;56.78
62708;BME280;48769;51.624;5.886;2023-04-26T09:30:07;101741.22;;;10.96;57.61
62708;BME280;48769;51.624;5.886;2023-04-26T09:32:53;101736.66;;;10.99;57.32
62708;BME280;48769;51.624;5.886;2023-04-26T09:35:24;101742.09;;;10.73;59.60
62708;BME280;48769;51.624;5.886;2023-04-26T09:43:12;101748.75;;;10.60;61.85
62708;BME280;48769;51.624;5.886;2023-04-26T09:45:52;101738.06;;;10.63;60.28
62708;BME280;48769;51.624;5.886;2023-04-26T09:50:51;101741.38;;;10.68;58.74
62708;BME280;48769;51.624;5.886;2023-04-26T09:55:53;101742.22;;;10.70;59.78
62708;BME280;48769;51.624;5.886;2023-04-26T09:58:18;101750.47;;;11.72;60.28
62708;BME280;48769;51.624;5.886;2023-04-26T10:00:44;101737.63;;;12.65;56.76
62708;BME280;48769;51.624;5.886;2023-04-26T10:03:12;101725.13;;;13.05;53.64
62708;BME280;48769;51.624;5.886;2023-04-26T10:05:37;101718.31;;;13.37;53.09
62708;BME280;48769;51.624;5.886;2023-04-26T10:08:05;101709.78;;;13.48;49.90
62708;BME280;48769;51.624;5.886;2023-04-26T10:10:31;101702.81;;;13.28;47.72
62708;BME280;48769;51.624;5.886;2023-04-26T10:12:56;101710.81;;;12.52;48.46
62708;BME280;48769;51.624;5.886;2023-04-26T10:15:22;101704.84;;;12.08;48.67
62708;BME280;48769;51.624;5.886;2023-04-26T10:17:47;101705.47;;;11.30;49.71
62708;BME280;48769;51.624;5.886;2023-04-26T10:20:14;101708.50;;;10.98;49.77
62708;BME280;48769;51.624;5.886;2023-04-26T10:22:44;101713.06;;;10.71;50.79
62708;BME280;48769;51.624;5.886;2023-04-26T10:25:10;101712.28;;;10.91;52.35
62708;BME280;48769;51.624;5.886;2023-04-26T10:27:53;101711.56;;;11.10;52.72
62708;BME280;48769;51.624;5.886;2023-04-26T10:30:20;101725.59;;;11.12;53.49
62708;BME280;48769;51.624;5.886;2023-04-26T10:35:24;101720.84;;;10.76;53.77
62708;BME280;48769;51.624;5.886;2023-04-26T10:45:43;101720.31;;;11.12;54.65
62708;BME280;48769;51.624;5.886;2023-04-26T10:48:22;101716.97;;;11.07;54.24
62708;BME280;48769;51.624;5.886;2023-04-26T10:53:30;101718.56;;;11.11;56.10
62708;BME280;48769;51.624;5.886;2023-04-26T10:55:57;101718.69;;;11.08;56.75
62708;BME280;48769;51.624;5.886;2023-04-26T11:01:17;101717.47;;;10.94;57.45
62708;BME280;48769;51.624;5.886;2023-04-26T11:06:22;101719.72;;;11.05;58.46
62708;BME280;48769;51.624;5.886;2023-04-26T11:08:47;101710.88;;;11.05;58.01
62708;BME280;48769;51.624;5.886;2023-04-26T11:11:15;101719.31;;;10.92;57.34
62708;BME280;48769;51.624;5.886;2023-04-26T11:13:41;101713.66;;;11.02;56.55
62708;BME280;48769;51.624;5.886;2023-04-26T11:16:12;101719.94;;;11.21;56.28
62708;BME280;48769;51.624;5.886;2023-04-26T11:18:39;101720.91;;;11.40;57.72
62708;BME280;48769;51.624;5.886;2023-04-26T11:21:06;101716.31;;;11.45;57.14
62708;BME280;48769;51.624;5.886;2023-04-26T11:23:32;101710.94;;;11.47;55.55
62708;BME280;48769;51.624;5.886;2023-04-26T11:25:59;101706.66;;;11.44;53.71
62708;BME280;48769;51.624;5.886;2023-04-26T11:28:26;101699.63;;;11.43;54.40
62708;BME280;48769;51.624;5.886;2023-04-26T11:30:52;101697.09;;;11.40;54.42
62708;BME280;48769;51.624;5.886;2023-04-26T11:33:22;101698.13;;;11.16;53.06
62708;BME280;48769;51.624;5.886;2023-04-26T11:35:48;101684.47;;;11.47;53.21
62708;BME280;48769;51.624;5.886;2023-04-26T11:38:14;101693.78;;;11.78;53.11
62708;BME280;48769;51.624;5.886;2023-04-26T11:40:40;101690.66;;;11.48;53.23
62708;BME280;48769;51.624;5.886;2023-04-26T11:43:07;101696.78;;;11.90;53.25
62708;BME280;48769;51.624;5.886;2023-04-26T11:45:35;101680.06;;;11.68;51.01
62708;BME280;48769;51.624;5.886;2023-04-26T11:48:02;101675.97;;;11.81;52.06
62708;BME280;48769;51.624;5.886;2023-04-26T11:50:28;101685.81;;;12.00;51.96
62708;BME280;48769;51.624;5.886;2023-04-26T11:52:56;101674.59;;;12.13;50.72
62708;BME280;48769;51.624;5.886;2023-04-26T11:55:26;101671.84;;;12.35;50.97
62708;BME280;48769;51.624;5.886;2023-04-26T11:57:52;101671.63;;;12.78;50.85
62708;BME280;48769;51.624;5.886;2023-04-26T12:00:18;101662.03;;;12.75;48.01
62708;BME280;48769;51.624;5.886;2023-04-26T12:02:47;101664.44;;;12.23;48.54
62708;BME280;48769;51.624;5.886;2023-04-26T12:05:28;101663.53;;;12.04;48.02
62708;BME280;48769;51.624;5.886;2023-04-26T12:07:58;101658.72;;;12.70;48.55
62708;BME280;48769;51.624;5.886;2023-04-26T12:10:30;101662.16;;;12.72;48.52
62708;BME280;48769;51.624;5.886;2023-04-26T12:12:57;101669.31;;;12.70;48.28
62708;BME280;48769;51.624;5.886;2023-04-26T12:15:28;101664.59;;;12.77;48.08
62708;BME280;48769;51.624;5.886;2023-04-26T12:18:15;101656.34;;;12.64;46.02
62708;BME280;48769;51.624;5.886;2023-04-26T12:20:41;101662.16;;;12.72;46.39
62708;BME280;48769;51.624;5.886;2023-04-26T12:23:07;101663.38;;;12.65;45.59
62708;BME280;48769;51.624;5.886;2023-04-26T12:25:35;101666.59;;;12.53;47.00
62708;BME280;48769;51.624;5.886;2023-04-26T12:28:02;101658.44;;;12.38;45.45
62708;BME280;48769;51.624;5.886;2023-04-26T12:30:28;101660.59;;;12.49;46.75
62708;BME280;48769;51.624;5.886;2023-04-26T12:32:54;101670.47;;;12.46;48.14
62708;BME280;48769;51.624;5.886;2023-04-26T12:35:20;101674.63;;;12.32;48.06
62708;BME280;48769;51.624;5.886;2023-04-26T12:37:45;101680.16;;;12.07;49.30
62708;BME280;48769;51.624;5.886;2023-04-26T12:40:12;101677.28;;;12.12;48.62
62708;BME280;48769;51.624;5.886;2023-04-26T12:42:38;101672.88;;;12.31;49.33
62708;BME280;48769;51.624;5.886;2023-04-26T12:45:03;101674.03;;;12.26;50.19
62708;BME280;48769;51.624;5.886;2023-04-26T12:47:29;101683.16;;;12.19;50.38
62708;BME280;48769;51.624;5.886;2023-04-26T12:49:55;101682.88;;;12.06;50.04
62708;BME280;48769;51.624;5.886;2023-04-26T12:52:21;101682.13;;;12.02;50.51
62708;BME280;48769;51.624;5.886;2023-04-26T12:54:47;101687.50;;;11.80;50.21
62708;BME280;48769;51.624;5.886;2023-04-26T12:57:13;101687.28;;;11.64;51.31
62708;BME280;48769;51.624;5.886;2023-04-26T12:59:38;101689.84;;;11.66;52.12
62708;BME280;48769;51.624;5.886;2023-04-26T13:02:04;101684.03;;;11.78;51.77
62708;BME280;48769;51.624;5.886;2023-04-26T13:04:29;101681.88;;;11.67;51.09
62708;BME280;48769;51.624;5.886;2023-04-26T13:06:55;101681.78;;;11.49;51.45
62708;BME280;48769;51.624;5.886;2023-04-26T13:09:20;101690.22;;;11.36;52.29
62708;BME280;48769;51.624;5.886;2023-04-26T13:11:45;101691.84;;;11.81;52.46
62708;BME280;48769;51.624;5.886;2023-04-26T13:14:11;101683.16;;;12.00;50.77
62708;BME280;48769;51.624;5.886;2023-04-26T13:16:36;101668.88;;;11.82;50.30